sensor_id;sensor_type;location;lat;lon;timestamp;P1;durP1;ratioP1;P2;durP2;ratioP2
25615;SDS011;13482;48.234;13.006;2022-09-30T00:01:34;4.10;;;3.15;;
25615;SDS011;13482;48.234;13.006;2022-09-30T00:04:06;3.50;;;2.97;;
25615;SDS011;13482;48.234;13.006;2022-09-30T00:06:39;3.35;;;2.78;;
25615;SDS011;13482;48.234;13.006;2022-09-30T00:09:06;3.55;;;3.00;;
25615;SDS011;13482;48.234;13.006;2022-09-30T00:11:34;3.88;;;3.03;;
25615;SDS011;13482;48.234;13.006;2022-09-30T00:14:01;3.47;;;2.92;;
25615;SDS011;13482;48.234;13.006;2022-09-30T00:16:30;3.80;;;3.28;;
25615;SDS011;13482;48.234;13.006;2022-09-30T00:19:00;3.75;;;3.22;;
25615;SDS011;13482;48.234;13.006;2022-09-30T00:21:29;4.03;;;3.38;;
25615;SDS011;13482;48.234;13.006;2022-09-30T00:23:59;4.65;;;3.78;;
25615;SDS011;13482;48.234;13.006;2022-09-30T00:26:27;4.38;;;3.58;;
25615;SDS011;13482;48.234;13.006;2022-09-30T00:28:55;5.25;;;3.97;;
25615;SDS011;13482;48.234;13.006;2022-09-30T00:31:26;4.45;;;3.63;;
25615;SDS011;13482;48.234;13.006;2022-09-30T00:33:57;4.35;;;3.20;;
25615;SDS011;13482;48.234;13.006;2022-09-30T00:36:55;3.55;;;3.17;;
25615;SDS011;13482;48.234;13.006;2022-09-30T00:39:23;3.40;;;2.85;;
25615;SDS011;13482;48.234;13.006;2022-09-30T00:41:54;3.22;;;2.83;;
25615;SDS011;13482;48.234;13.006;2022-09-30T00:53:02;3.88;;;3.47;;
25615;SDS011;13482;48.234;13.006;2022-09-30T00:56:06;4.82;;;3.40;;
25615;SDS011;13482;48.234;13.006;2022-09-30T00:58:38;4.88;;;3.60;;
25615;SDS011;13482;48.234;13.006;2022-09-30T01:01:14;3.35;;;2.95;;
25615;SDS011;13482;48.234;13.006;2022-09-30T01:03:56;5.00;;;3.38;;
25615;SDS011;13482;48.234;13.006;2022-09-30T01:06:28;3.50;;;3.08;;
25615;SDS011;13482;48.234;13.006;2022-09-30T01:08:55;4.10;;;3.35;;
25615;SDS011;13482;48.234;13.006;2022-09-30T01:11:26;3.85;;;3.35;;
25615;SDS011;13482;48.234;13.006;2022-09-30T01:13:55;4.78;;;3.75;;
25615;SDS011;13482;48.234;13.006;2022-09-30T01:27:40;4.00;;;3.47;;
25615;SDS011;13482;48.234;13.006;2022-09-30T01:34:03;4.20;;;3.25;;
25615;SDS011;13482;48.234;13.006;2022-09-30T01:40:18;3.45;;;3.00;;
25615;SDS011;13482;48.234;13.006;2022-09-30T01:43:04;3.83;;;3.20;;
25615;SDS011;13482;48.234;13.006;2022-09-30T01:45:58;4.25;;;3.47;;
25615;SDS011;13482;48.234;13.006;2022-09-30T01:51:44;4.18;;;3.50;;
25615;SDS011;13482;48.234;13.006;2022-09-30T01:57:02;4.25;;;3.58;;
25615;SDS011;13482;48.234;13.006;2022-09-30T02:00:05;4.20;;;3.67;;
25615;SDS011;13482;48.234;13.006;2022-09-30T02:02:47;4.60;;;3.80;;
25615;SDS011;13482;48.234;13.006;2022-09-30T02:05:37;4.40;;;3.95;;
25615;SDS011;13482;48.234;13.006;2022-09-30T02:08:20;4.20;;;3.70;;
25615;SDS011;13482;48.234;13.006;2022-09-30T02:11:10;4.35;;;3.72;;
25615;SDS011;13482;48.234;13.006;2022-09-30T02:16:16;6.90;;;5.72;;
25615;SDS011;13482;48.234;13.006;2022-09-30T02:18:56;8.15;;;5.25;;
25615;SDS011;13482;48.234;13.006;2022-09-30T02:21:44;5.30;;;4.80;;
25615;SDS011;13482;48.234;13.006;2022-09-30T02:24:21;5.88;;;4.43;;
25615;SDS011;13482;48.234;13.006;2022-09-30T02:26:53;5.55;;;4.70;;
25615;SDS011;13482;48.234;13.006;2022-09-30T02:29:33;5.05;;;4.30;;
25615;SDS011;13482;48.234;13.006;2022-09-30T02:32:12;5.93;;;4.63;;
25615;SDS011;13482;48.234;13.006;2022-09-30T02:35:09;5.25;;;4.07;;
25615;SDS011;13482;48.234;13.006;2022-09-30T02:37:51;4.50;;;4.00;;
25615;SDS011;13482;48.234;13.006;2022-09-30T02:40:27;5.13;;;4.38;;
25615;SDS011;13482;48.234;13.006;2022-09-30T02:43:05;5.00;;;4.35;;
25615;SDS011;13482;48.234;13.006;2022-09-30T02:45:37;5.13;;;4.55;;
25615;SDS011;13482;48.234;13.006;2022-09-30T02:51:14;4.85;;;4.13;;
25615;SDS011;13482;48.234;13.006;2022-09-30T02:54:04;4.90;;;4.15;;
25615;SDS011;13482;48.234;13.006;2022-09-30T02:56:57;4.95;;;3.75;;
25615;SDS011;13482;48.234;13.006;2022-09-30T02:59:34;4.25;;;3.85;;
25615;SDS011;13482;48.234;13.006;2022-09-30T03:02:01;4.32;;;3.90;;
25615;SDS011;13482;48.234;13.006;2022-09-30T03:04:29;4.50;;;3.67;;
25615;SDS011;13482;48.234;13.006;2022-09-30T03:07:00;5.15;;;4.53;;
25615;SDS011;13482;48.234;13.006;2022-09-30T03:09:27;4.93;;;4.30;;
25615;SDS011;13482;48.234;13.006;2022-09-30T03:11:59;5.55;;;4.45;;
25615;SDS011;13482;48.234;13.006;2022-09-30T03:14:44;3.95;;;3.33;;
25615;SDS011;13482;48.234;13.006;2022-09-30T03:20:38;4.65;;;4.05;;
25615;SDS011;13482;48.234;13.006;2022-09-30T03:23:35;5.57;;;4.30;;
25615;SDS011;13482;48.234;13.006;2022-09-30T03:42:14;4.43;;;3.75;;
25615;SDS011;13482;48.234;13.006;2022-09-30T03:45:01;4.65;;;4.13;;
25615;SDS011;13482;48.234;13.006;2022-09-30T03:47:33;5.82;;;4.15;;
25615;SDS011;13482;48.234;13.006;2022-09-30T03:50:08;4.57;;;3.97;;
25615;SDS011;13482;48.234;13.006;2022-09-30T03:52:40;5.32;;;4.47;;
25615;SDS011;13482;48.234;13.006;2022-09-30T03:55:08;6.03;;;4.03;;
25615;SDS011;13482;48.234;13.006;2022-09-30T03:57:36;4.97;;;4.25;;
25615;SDS011;13482;48.234;13.006;2022-09-30T04:00:05;4.90;;;4.32;;
25615;SDS011;13482;48.234;13.006;2022-09-30T04:02:33;5.05;;;4.30;;
25615;SDS011;13482;48.234;13.006;2022-09-30T04:05:03;5.22;;;4.05;;
25615;SDS011;13482;48.234;13.006;2022-09-30T04:07:31;4.90;;;4.35;;
25615;SDS011;13482;48.234;13.006;2022-09-30T04:09:59;5.13;;;4.45;;
25615;SDS011;13482;48.234;13.006;2022-09-30T04:12:26;5.65;;;4.57;;
25615;SDS011;13482;48.234;13.006;2022-09-30T04:14:53;5.35;;;4.60;;
25615;SDS011;13482;48.234;13.006;2022-09-30T04:17:20;5.05;;;4.15;;
25615;SDS011;13482;48.234;13.006;2022-09-30T04:19:48;4.93;;;4.20;;
25615;SDS011;13482;48.234;13.006;2022-09-30T04:22:16;5.03;;;4.43;;
25615;SDS011;13482;48.234;13.006;2022-09-30T04:24:43;5.22;;;4.43;;
25615;SDS011;13482;48.234;13.006;2022-09-30T04:27:10;4.40;;;3.83;;
25615;SDS011;13482;48.234;13.006;2022-09-30T04:29:37;5.05;;;4.15;;
25615;SDS011;13482;48.234;13.006;2022-09-30T04:32:04;5.35;;;4.45;;
25615;SDS011;13482;48.234;13.006;2022-09-30T04:34:31;5.38;;;4.45;;
25615;SDS011;13482;48.234;13.006;2022-09-30T04:36:59;5.50;;;4.43;;
25615;SDS011;13482;48.234;13.006;2022-09-30T04:39:26;6.18;;;4.30;;
25615;SDS011;13482;48.234;13.006;2022-09-30T04:41:53;5.30;;;4.35;;
25615;SDS011;13482;48.234;13.006;2022-09-30T04:44:20;5.25;;;4.15;;
25615;SDS011;13482;48.234;13.006;2022-09-30T04:46:47;4.80;;;4.15;;
25615;SDS011;13482;48.234;13.006;2022-09-30T04:49:15;4.88;;;4.38;;
25615;SDS011;13482;48.234;13.006;2022-09-30T04:51:42;5.25;;;4.38;;
25615;SDS011;13482;48.234;13.006;2022-09-30T04:54:11;4.95;;;4.32;;
25615;SDS011;13482;48.234;13.006;2022-09-30T04:56:39;4.28;;;3.88;;
25615;SDS011;13482;48.234;13.006;2022-09-30T04:59:06;5.32;;;4.38;;
25615;SDS011;13482;48.234;13.006;2022-09-30T05:01:33;4.38;;;3.80;;
25615;SDS011;13482;48.234;13.006;2022-09-30T05:04:01;4.18;;;3.65;;
25615;SDS011;13482;48.234;13.006;2022-09-30T05:06:28;4.35;;;3.90;;
25615;SDS011;13482;48.234;13.006;2022-09-30T05:08:55;4.82;;;3.80;;
25615;SDS011;13482;48.234;13.006;2022-09-30T05:11:23;4.35;;;3.83;;
25615;SDS011;13482;48.234;13.006;2022-09-30T05:13:50;5.43;;;4.43;;
25615;SDS011;13482;48.234;13.006;2022-09-30T05:16:17;5.28;;;3.70;;
25615;SDS011;13482;48.234;13.006;2022-09-30T05:18:45;4.07;;;3.55;;
25615;SDS011;13482;48.234;13.006;2022-09-30T05:21:13;4.90;;;4.40;;
25615;SDS011;13482;48.234;13.006;2022-09-30T05:23:43;6.35;;;5.18;;
25615;SDS011;13482;48.234;13.006;2022-09-30T05:26:11;6.80;;;5.72;;
25615;SDS011;13482;48.234;13.006;2022-09-30T05:28:39;7.05;;;5.88;;
25615;SDS011;13482;48.234;13.006;2022-09-30T05:31:07;10.00;;;7.47;;
25615;SDS011;13482;48.234;13.006;2022-09-30T05:33:35;9.07;;;7.13;;
25615;SDS011;13482;48.234;13.006;2022-09-30T05:36:03;7.53;;;6.10;;
25615;SDS011;13482;48.234;13.006;2022-09-30T05:38:33;7.68;;;5.20;;
25615;SDS011;13482;48.234;13.006;2022-09-30T05:41:05;5.05;;;4.43;;
25615;SDS011;13482;48.234;13.006;2022-09-30T05:43:39;5.00;;;4.20;;
25615;SDS011;13482;48.234;13.006;2022-09-30T05:46:10;4.43;;;3.92;;
25615;SDS011;13482;48.234;13.006;2022-09-30T05:48:38;4.10;;;3.53;;
25615;SDS011;13482;48.234;13.006;2022-09-30T05:51:05;4.35;;;3.60;;
25615;SDS011;13482;48.234;13.006;2022-09-30T05:53:33;4.72;;;3.88;;
25615;SDS011;13482;48.234;13.006;2022-09-30T05:56:08;5.25;;;4.00;;
25615;SDS011;13482;48.234;13.006;2022-09-30T05:58:36;5.55;;;3.75;;
25615;SDS011;13482;48.234;13.006;2022-09-30T06:01:04;8.32;;;5.45;;
25615;SDS011;13482;48.234;13.006;2022-09-30T06:03:39;7.18;;;5.40;;
25615;SDS011;13482;48.234;13.006;2022-09-30T06:06:08;6.35;;;5.00;;
25615;SDS011;13482;48.234;13.006;2022-09-30T06:08:36;5.43;;;4.38;;
25615;SDS011;13482;48.234;13.006;2022-09-30T06:11:11;6.35;;;4.50;;
25615;SDS011;13482;48.234;13.006;2022-09-30T06:13:42;5.93;;;4.22;;
25615;SDS011;13482;48.234;13.006;2022-09-30T06:16:10;4.60;;;3.78;;
25615;SDS011;13482;48.234;13.006;2022-09-30T06:18:39;5.93;;;3.70;;
25615;SDS011;13482;48.234;13.006;2022-09-30T06:21:07;4.35;;;3.42;;
25615;SDS011;13482;48.234;13.006;2022-09-30T06:23:38;3.92;;;3.40;;
25615;SDS011;13482;48.234;13.006;2022-09-30T06:26:07;4.28;;;3.40;;
25615;SDS011;13482;48.234;13.006;2022-09-30T06:28:37;4.35;;;3.63;;
25615;SDS011;13482;48.234;13.006;2022-09-30T06:31:04;5.03;;;3.30;;
25615;SDS011;13482;48.234;13.006;2022-09-30T06:33:32;4.22;;;3.53;;
25615;SDS011;13482;48.234;13.006;2022-09-30T06:36:00;4.35;;;3.80;;
25615;SDS011;13482;48.234;13.006;2022-09-30T06:38:30;4.60;;;3.42;;
25615;SDS011;13482;48.234;13.006;2022-09-30T06:40:59;5.38;;;4.05;;
25615;SDS011;13482;48.234;13.006;2022-09-30T06:43:26;3.90;;;3.40;;
25615;SDS011;13482;48.234;13.006;2022-09-30T06:45:54;5.55;;;4.25;;
25615;SDS011;13482;48.234;13.006;2022-09-30T06:48:36;4.65;;;3.67;;
25615;SDS011;13482;48.234;13.006;2022-09-30T06:51:05;4.25;;;3.83;;
25615;SDS011;13482;48.234;13.006;2022-09-30T06:53:36;3.90;;;3.50;;
25615;SDS011;13482;48.234;13.006;2022-09-30T06:56:05;6.03;;;3.30;;
25615;SDS011;13482;48.234;13.006;2022-09-30T06:58:32;3.95;;;3.30;;
25615;SDS011;13482;48.234;13.006;2022-09-30T07:01:00;4.88;;;4.07;;
25615;SDS011;13482;48.234;13.006;2022-09-30T07:06:01;4.05;;;3.00;;
25615;SDS011;13482;48.234;13.006;2022-09-30T07:08:32;3.90;;;2.90;;
25615;SDS011;13482;48.234;13.006;2022-09-30T07:11:02;5.00;;;3.25;;
25615;SDS011;13482;48.234;13.006;2022-09-30T07:13:40;3.65;;;2.88;;
25615;SDS011;13482;48.234;13.006;2022-09-30T07:16:12;3.90;;;2.97;;
25615;SDS011;13482;48.234;13.006;2022-09-30T07:18:42;3.65;;;3.13;;
25615;SDS011;13482;48.234;13.006;2022-09-30T07:21:11;3.83;;;3.13;;
25615;SDS011;13482;48.234;13.006;2022-09-30T07:23:42;3.40;;;2.92;;
25615;SDS011;13482;48.234;13.006;2022-09-30T07:26:18;3.97;;;3.45;;
25615;SDS011;13482;48.234;13.006;2022-09-30T07:28:48;4.45;;;3.50;;
25615;SDS011;13482;48.234;13.006;2022-09-30T07:31:23;6.88;;;3.75;;
25615;SDS011;13482;48.234;13.006;2022-09-30T07:33:59;3.67;;;3.22;;
25615;SDS011;13482;48.234;13.006;2022-09-30T07:36:26;3.85;;;3.20;;
25615;SDS011;13482;48.234;13.006;2022-09-30T07:38:59;4.05;;;3.10;;
25615;SDS011;13482;48.234;13.006;2022-09-30T07:41:31;4.63;;;3.25;;
25615;SDS011;13482;48.234;13.006;2022-09-30T07:44:01;4.70;;;3.33;;
25615;SDS011;13482;48.234;13.006;2022-09-30T07:46:31;3.70;;;2.90;;
25615;SDS011;13482;48.234;13.006;2022-09-30T07:49:00;4.03;;;3.30;;
25615;SDS011;13482;48.234;13.006;2022-09-30T07:51:30;4.22;;;3.15;;
25615;SDS011;13482;48.234;13.006;2022-09-30T07:54:07;4.05;;;3.13;;
25615;SDS011;13482;48.234;13.006;2022-09-30T07:56:43;3.65;;;3.08;;
25615;SDS011;13482;48.234;13.006;2022-09-30T07:59:33;4.63;;;3.15;;
25615;SDS011;13482;48.234;13.006;2022-09-30T08:02:04;4.50;;;3.33;;
25615;SDS011;13482;48.234;13.006;2022-09-30T08:04:33;3.78;;;3.25;;
25615;SDS011;13482;48.234;13.006;2022-09-30T08:07:06;4.10;;;3.20;;
25615;SDS011;13482;48.234;13.006;2022-09-30T08:09:34;4.47;;;3.45;;
25615;SDS011;13482;48.234;13.006;2022-09-30T08:12:02;4.07;;;3.50;;
25615;SDS011;13482;48.234;13.006;2022-09-30T08:14:30;3.92;;;3.45;;
25615;SDS011;13482;48.234;13.006;2022-09-30T08:16:58;3.60;;;3.13;;
25615;SDS011;13482;48.234;13.006;2022-09-30T08:19:27;3.17;;;2.75;;
25615;SDS011;13482;48.234;13.006;2022-09-30T08:21:56;3.95;;;2.97;;
25615;SDS011;13482;48.234;13.006;2022-09-30T08:24:23;4.25;;;2.75;;
25615;SDS011;13482;48.234;13.006;2022-09-30T08:26:52;4.00;;;2.90;;
25615;SDS011;13482;48.234;13.006;2022-09-30T08:29:20;4.03;;;2.83;;
25615;SDS011;13482;48.234;13.006;2022-09-30T08:32:07;3.13;;;2.40;;
25615;SDS011;13482;48.234;13.006;2022-09-30T08:34:35;2.42;;;2.22;;
25615;SDS011;13482;48.234;13.006;2022-09-30T08:37:02;3.65;;;2.45;;
25615;SDS011;13482;48.234;13.006;2022-09-30T08:39:34;2.70;;;2.08;;
25615;SDS011;13482;48.234;13.006;2022-09-30T08:45:12;3.30;;;2.08;;
25615;SDS011;13482;48.234;13.006;2022-09-30T08:51:26;2.38;;;2.03;;
25615;SDS011;13482;48.234;13.006;2022-09-30T08:54:05;2.50;;;1.90;;
25615;SDS011;13482;48.234;13.006;2022-09-30T08:56:40;2.92;;;2.03;;
25615;SDS011;13482;48.234;13.006;2022-09-30T09:04:47;2.42;;;1.80;;
25615;SDS011;13482;48.234;13.006;2022-09-30T09:07:39;2.85;;;2.00;;
25615;SDS011;13482;48.234;13.006;2022-09-30T09:21:20;2.72;;;1.85;;
25615;SDS011;13482;48.234;13.006;2022-09-30T09:23:52;2.80;;;1.98;;
25615;SDS011;13482;48.234;13.006;2022-09-30T09:26:23;2.17;;;1.57;;
25615;SDS011;13482;48.234;13.006;2022-09-30T09:32:14;2.92;;;2.13;;
25615;SDS011;13482;48.234;13.006;2022-09-30T09:34:43;2.30;;;1.85;;
25615;SDS011;13482;48.234;13.006;2022-09-30T09:40:11;3.58;;;2.55;;
25615;SDS011;13482;48.234;13.006;2022-09-30T09:45:45;2.60;;;2.05;;
25615;SDS011;13482;48.234;13.006;2022-09-30T09:48:26;2.90;;;2.05;;
25615;SDS011;13482;48.234;13.006;2022-09-30T09:50:59;2.92;;;2.20;;
25615;SDS011;13482;48.234;13.006;2022-09-30T09:56:14;4.15;;;2.40;;
25615;SDS011;13482;48.234;13.006;2022-09-30T09:59:16;2.28;;;1.90;;
25615;SDS011;13482;48.234;13.006;2022-09-30T10:01:52;2.42;;;1.60;;
25615;SDS011;13482;48.234;13.006;2022-09-30T10:04:23;2.53;;;1.75;;
25615;SDS011;13482;48.234;13.006;2022-09-30T10:06:59;2.50;;;1.70;;
25615;SDS011;13482;48.234;13.006;2022-09-30T10:09:29;2.08;;;1.63;;
25615;SDS011;13482;48.234;13.006;2022-09-30T10:14:37;1.73;;;1.40;;
25615;SDS011;13482;48.234;13.006;2022-09-30T10:17:28;1.92;;;1.30;;
25615;SDS011;13482;48.234;13.006;2022-09-30T10:20:23;1.80;;;1.30;;
25615;SDS011;13482;48.234;13.006;2022-09-30T10:25:56;1.40;;;0.90;;
25615;SDS011;13482;48.234;13.006;2022-09-30T10:28:43;1.25;;;0.85;;
25615;SDS011;13482;48.234;13.006;2022-09-30T10:36:45;2.17;;;1.25;;
25615;SDS011;13482;48.234;13.006;2022-09-30T10:42:07;1.77;;;1.23;;
25615;SDS011;13482;48.234;13.006;2022-09-30T10:44:46;3.08;;;1.30;;
25615;SDS011;13482;48.234;13.006;2022-09-30T10:47:23;1.90;;;1.10;;
25615;SDS011;13482;48.234;13.006;2022-09-30T10:49:57;1.42;;;1.10;;
25615;SDS011;13482;48.234;13.006;2022-09-30T10:52:51;1.25;;;0.93;;
25615;SDS011;13482;48.234;13.006;2022-09-30T10:55:43;1.20;;;0.85;;
25615;SDS011;13482;48.234;13.006;2022-09-30T10:58:28;1.50;;;1.05;;
25615;SDS011;13482;48.234;13.006;2022-09-30T11:01:24;3.03;;;0.95;;
25615;SDS011;13482;48.234;13.006;2022-09-30T11:04:35;1.60;;;0.70;;
25615;SDS011;13482;48.234;13.006;2022-09-30T11:07:17;1.40;;;0.90;;
25615;SDS011;13482;48.234;13.006;2022-09-30T11:10:00;1.10;;;0.90;;
25615;SDS011;13482;48.234;13.006;2022-09-30T11:12:43;1.08;;;0.77;;
25615;SDS011;13482;48.234;13.006;2022-09-30T11:16:10;1.10;;;0.73;;
25615;SDS011;13482;48.234;13.006;2022-09-30T11:21:26;0.90;;;0.60;;
25615;SDS011;13482;48.234;13.006;2022-09-30T11:24:59;0.80;;;0.63;;
25615;SDS011;13482;48.234;13.006;2022-09-30T11:50:00;1.17;;;0.93;;
25615;SDS011;13482;48.234;13.006;2022-09-30T11:53:00;1.20;;;0.88;;
25615;SDS011;13482;48.234;13.006;2022-09-30T11:58:47;1.35;;;0.90;;
25615;SDS011;13482;48.234;13.006;2022-09-30T12:01:19;1.40;;;0.70;;
25615;SDS011;13482;48.234;13.006;2022-09-30T12:06:46;1.40;;;1.00;;
25615;SDS011;13482;48.234;13.006;2022-09-30T12:09:41;1.33;;;1.00;;
25615;SDS011;13482;48.234;13.006;2022-09-30T12:12:17;1.98;;;1.15;;
25615;SDS011;13482;48.234;13.006;2022-09-30T12:17:40;1.88;;;1.23;;
25615;SDS011;13482;48.234;13.006;2022-09-30T12:20:32;1.42;;;0.95;;
25615;SDS011;13482;48.234;13.006;2022-09-30T12:23:10;2.22;;;1.20;;
25615;SDS011;13482;48.234;13.006;2022-09-30T12:26:00;1.60;;;1.27;;
25615;SDS011;13482;48.234;13.006;2022-09-30T12:34:29;1.73;;;1.38;;
25615;SDS011;13482;48.234;13.006;2022-09-30T12:37:57;1.80;;;1.40;;
25615;SDS011;13482;48.234;13.006;2022-09-30T12:43:57;1.85;;;1.42;;
25615;SDS011;13482;48.234;13.006;2022-09-30T12:47:20;2.20;;;1.40;;
25615;SDS011;13482;48.234;13.006;2022-09-30T12:49:56;2.33;;;1.70;;
25615;SDS011;13482;48.234;13.006;2022-09-30T12:52:25;1.85;;;1.35;;
25615;SDS011;13482;48.234;13.006;2022-09-30T12:55:05;2.15;;;1.50;;
25615;SDS011;13482;48.234;13.006;2022-09-30T12:57:37;2.28;;;1.50;;
25615;SDS011;13482;48.234;13.006;2022-09-30T13:00:14;2.13;;;1.58;;
25615;SDS011;13482;48.234;13.006;2022-09-30T13:02:48;1.95;;;1.42;;
25615;SDS011;13482;48.234;13.006;2022-09-30T13:10:33;2.15;;;1.60;;
25615;SDS011;13482;48.234;13.006;2022-09-30T13:15:43;2.33;;;1.60;;
25615;SDS011;13482;48.234;13.006;2022-09-30T13:20:55;1.67;;;1.30;;
25615;SDS011;13482;48.234;13.006;2022-09-30T13:23:37;1.77;;;1.35;;
25615;SDS011;13482;48.234;13.006;2022-09-30T13:28:54;2.20;;;1.58;;
25615;SDS011;13482;48.234;13.006;2022-09-30T13:39:42;1.70;;;1.10;;
25615;SDS011;13482;48.234;13.006;2022-09-30T13:42:19;1.17;;;0.95;;
25615;SDS011;13482;48.234;13.006;2022-09-30T13:44:59;1.30;;;1.08;;
25615;SDS011;13482;48.234;13.006;2022-09-30T13:53:01;1.70;;;1.27;;
25615;SDS011;13482;48.234;13.006;2022-09-30T13:55:40;1.60;;;1.20;;
25615;SDS011;13482;48.234;13.006;2022-09-30T14:04:46;1.05;;;0.90;;
25615;SDS011;13482;48.234;13.006;2022-09-30T14:16:59;1.00;;;0.80;;
25615;SDS011;13482;48.234;13.006;2022-09-30T14:22:29;1.00;;;0.65;;
25615;SDS011;13482;48.234;13.006;2022-09-30T14:24:56;1.10;;;0.70;;
25615;SDS011;13482;48.234;13.006;2022-09-30T14:27:42;1.10;;;0.70;;
25615;SDS011;13482;48.234;13.006;2022-09-30T14:30:25;1.05;;;0.70;;
25615;SDS011;13482;48.234;13.006;2022-09-30T14:32:54;1.10;;;0.60;;
25615;SDS011;13482;48.234;13.006;2022-09-30T14:35:33;0.40;;;0.40;;
25615;SDS011;13482;48.234;13.006;2022-09-30T14:40:31;0.70;;;0.50;;
25615;SDS011;13482;48.234;13.006;2022-09-30T14:43:01;0.77;;;0.47;;
25615;SDS011;13482;48.234;13.006;2022-09-30T14:45:32;0.70;;;0.50;;
25615;SDS011;13482;48.234;13.006;2022-09-30T14:48:15;0.70;;;0.60;;
25615;SDS011;13482;48.234;13.006;2022-09-30T14:51:01;0.52;;;0.50;;
25615;SDS011;13482;48.234;13.006;2022-09-30T14:53:38;0.88;;;0.50;;
25615;SDS011;13482;48.234;13.006;2022-09-30T14:56:19;0.77;;;0.60;;
25615;SDS011;13482;48.234;13.006;2022-09-30T14:59:22;0.60;;;0.32;;
25615;SDS011;13482;48.234;13.006;2022-09-30T15:02:01;0.55;;;0.40;;
25615;SDS011;13482;48.234;13.006;2022-09-30T15:04:52;0.65;;;0.45;;
25615;SDS011;13482;48.234;13.006;2022-09-30T15:07:26;0.83;;;0.47;;
25615;SDS011;13482;48.234;13.006;2022-09-30T15:09:53;0.38;;;0.38;;
25615;SDS011;13482;48.234;13.006;2022-09-30T15:12:27;0.47;;;0.38;;
25615;SDS011;13482;48.234;13.006;2022-09-30T15:14:56;0.90;;;0.40;;
25615;SDS011;13482;48.234;13.006;2022-09-30T15:17:26;0.40;;;0.32;;
25615;SDS011;13482;48.234;13.006;2022-09-30T15:19:56;0.50;;;0.47;;
25615;SDS011;13482;48.234;13.006;2022-09-30T15:22:25;0.43;;;0.40;;
25615;SDS011;13482;48.234;13.006;2022-09-30T15:24:54;0.93;;;0.60;;
25615;SDS011;13482;48.234;13.006;2022-09-30T15:27:27;2.03;;;1.20;;
25615;SDS011;13482;48.234;13.006;2022-09-30T15:29:57;0.98;;;0.60;;
25615;SDS011;13482;48.234;13.006;2022-09-30T15:32:29;1.05;;;0.70;;
25615;SDS011;13482;48.234;13.006;2022-09-30T15:35:13;0.52;;;0.50;;
25615;SDS011;13482;48.234;13.006;2022-09-30T15:37:44;0.80;;;0.65;;
25615;SDS011;13482;48.234;13.006;2022-09-30T15:40:12;1.00;;;0.60;;
25615;SDS011;13482;48.234;13.006;2022-09-30T15:43:10;1.30;;;0.80;;
25615;SDS011;13482;48.234;13.006;2022-09-30T15:45:42;1.23;;;0.77;;
25615;SDS011;13482;48.234;13.006;2022-09-30T15:48:53;1.10;;;1.00;;
25615;SDS011;13482;48.234;13.006;2022-09-30T15:51:21;1.10;;;1.00;;
25615;SDS011;13482;48.234;13.006;2022-09-30T15:56:58;1.08;;;0.70;;
25615;SDS011;13482;48.234;13.006;2022-09-30T15:59:55;1.00;;;0.60;;
25615;SDS011;13482;48.234;13.006;2022-09-30T16:02:29;0.70;;;0.60;;
25615;SDS011;13482;48.234;13.006;2022-09-30T16:04:56;1.00;;;0.63;;
25615;SDS011;13482;48.234;13.006;2022-09-30T16:07:27;0.93;;;0.68;;
25615;SDS011;13482;48.234;13.006;2022-09-30T16:09:57;1.50;;;1.00;;
25615;SDS011;13482;48.234;13.006;2022-09-30T16:12:26;1.52;;;0.90;;
25615;SDS011;13482;48.234;13.006;2022-09-30T16:15:05;2.38;;;0.80;;
25615;SDS011;13482;48.234;13.006;2022-09-30T16:17:44;1.70;;;0.90;;
25615;SDS011;13482;48.234;13.006;2022-09-30T16:25:26;1.60;;;0.90;;
25615;SDS011;13482;48.234;13.006;2022-09-30T16:28:11;3.03;;;1.10;;
25615;SDS011;13482;48.234;13.006;2022-09-30T16:30:44;2.60;;;1.35;;
25615;SDS011;13482;48.234;13.006;2022-09-30T16:33:15;3.75;;;1.80;;
25615;SDS011;13482;48.234;13.006;2022-09-30T16:35:44;3.40;;;1.50;;
25615;SDS011;13482;48.234;13.006;2022-09-30T16:38:16;3.10;;;1.60;;
25615;SDS011;13482;48.234;13.006;2022-09-30T16:40:45;2.42;;;1.60;;
25615;SDS011;13482;48.234;13.006;2022-09-30T16:43:12;2.65;;;1.65;;
25615;SDS011;13482;48.234;13.006;2022-09-30T16:45:39;2.92;;;1.70;;
25615;SDS011;13482;48.234;13.006;2022-09-30T16:48:13;1.70;;;1.05;;
25615;SDS011;13482;48.234;13.006;2022-09-30T16:50:42;1.83;;;0.90;;
25615;SDS011;13482;48.234;13.006;2022-09-30T16:53:16;1.40;;;0.93;;
25615;SDS011;13482;48.234;13.006;2022-09-30T16:55:44;1.27;;;0.70;;
25615;SDS011;13482;48.234;13.006;2022-09-30T16:58:13;1.02;;;0.63;;
25615;SDS011;13482;48.234;13.006;2022-09-30T17:00:41;0.85;;;0.70;;
25615;SDS011;13482;48.234;13.006;2022-09-30T17:03:11;1.10;;;0.63;;
25615;SDS011;13482;48.234;13.006;2022-09-30T17:05:44;1.60;;;0.77;;
25615;SDS011;13482;48.234;13.006;2022-09-30T17:08:16;2.42;;;0.90;;
25615;SDS011;13482;48.234;13.006;2022-09-30T17:10:45;1.40;;;0.80;;
25615;SDS011;13482;48.234;13.006;2022-09-30T17:13:18;1.40;;;0.70;;
25615;SDS011;13482;48.234;13.006;2022-09-30T17:15:49;1.77;;;0.90;;
25615;SDS011;13482;48.234;13.006;2022-09-30T17:18:17;1.80;;;0.98;;
25615;SDS011;13482;48.234;13.006;2022-09-30T17:20:45;1.60;;;0.80;;
25615;SDS011;13482;48.234;13.006;2022-09-30T17:23:22;2.25;;;0.90;;
25615;SDS011;13482;48.234;13.006;2022-09-30T17:25:50;2.10;;;1.13;;
25615;SDS011;13482;48.234;13.006;2022-09-30T17:28:19;2.22;;;1.60;;
25615;SDS011;13482;48.234;13.006;2022-09-30T17:30:47;3.78;;;2.45;;
25615;SDS011;13482;48.234;13.006;2022-09-30T17:33:16;8.77;;;2.38;;
25615;SDS011;13482;48.234;13.006;2022-09-30T17:35:55;3.85;;;2.60;;
25615;SDS011;13482;48.234;13.006;2022-09-30T17:38:27;3.28;;;2.28;;
25615;SDS011;13482;48.234;13.006;2022-09-30T17:40:55;3.65;;;2.55;;
25615;SDS011;13482;48.234;13.006;2022-09-30T17:43:41;3.70;;;2.65;;
25615;SDS011;13482;48.234;13.006;2022-09-30T17:46:08;4.03;;;2.85;;
25615;SDS011;13482;48.234;13.006;2022-09-30T17:48:35;4.50;;;3.20;;
25615;SDS011;13482;48.234;13.006;2022-09-30T17:51:04;4.45;;;3.40;;
25615;SDS011;13482;48.234;13.006;2022-09-30T17:53:32;6.05;;;4.30;;
25615;SDS011;13482;48.234;13.006;2022-09-30T17:56:01;5.85;;;3.83;;
25615;SDS011;13482;48.234;13.006;2022-09-30T17:58:38;9.50;;;3.15;;
25615;SDS011;13482;48.234;13.006;2022-09-30T18:01:06;4.63;;;3.47;;
25615;SDS011;13482;48.234;13.006;2022-09-30T18:03:37;5.15;;;3.75;;
25615;SDS011;13482;48.234;13.006;2022-09-30T18:06:04;6.05;;;3.72;;
25615;SDS011;13482;48.234;13.006;2022-09-30T18:08:32;4.70;;;3.53;;
25615;SDS011;13482;48.234;13.006;2022-09-30T18:11:00;5.20;;;3.55;;
25615;SDS011;13482;48.234;13.006;2022-09-30T18:13:28;4.53;;;3.70;;
25615;SDS011;13482;48.234;13.006;2022-09-30T18:15:55;5.35;;;3.92;;
25615;SDS011;13482;48.234;13.006;2022-09-30T18:18:27;5.25;;;3.97;;
25615;SDS011;13482;48.234;13.006;2022-09-30T18:20:55;5.50;;;3.75;;
25615;SDS011;13482;48.234;13.006;2022-09-30T18:23:22;4.88;;;3.88;;
25615;SDS011;13482;48.234;13.006;2022-09-30T18:25:49;5.38;;;4.03;;
25615;SDS011;13482;48.234;13.006;2022-09-30T18:28:17;5.03;;;3.60;;
25615;SDS011;13482;48.234;13.006;2022-09-30T18:30:44;4.32;;;3.67;;
25615;SDS011;13482;48.234;13.006;2022-09-30T18:33:11;5.70;;;4.28;;
25615;SDS011;13482;48.234;13.006;2022-09-30T18:35:42;4.57;;;3.75;;
25615;SDS011;13482;48.234;13.006;2022-09-30T18:38:09;5.05;;;4.03;;
25615;SDS011;13482;48.234;13.006;2022-09-30T18:40:40;5.22;;;3.75;;
25615;SDS011;13482;48.234;13.006;2022-09-30T18:43:10;4.20;;;3.45;;
25615;SDS011;13482;48.234;13.006;2022-09-30T18:45:39;3.47;;;2.88;;